• Join FlightAware (Why Join?)
  • Login
  • US Flag 
10:46PM EST


 

Airport Tracker/Info


-or-


 

Live Flight TrackerFlight Track Log ✈ DAL1190 ✈ 19-Apr-2014 ✈ KPBI - KATL

Flight Track Log - Related Links

Times and Time Zones

All times are in EDT time to prevent confusion due to time zone crossing. See the DAL1190 flight status page for this flight to view local times or setup timezone preferences in your user account.

Time Position Orientation Groundspeed Altitude Reporting Facility
EDT Latitude Longitude Course Direction KTS MPH feet Rate Location/Type
07:17AM 26.6868 -80.1733 272° West 230 265 3,600  Level FlightAware ADS-B (RJTF)
07:17AM 26.6895 -80.2142 283° West 255 293 5,200 3,273 Climbing FlightAware ADS-B (RJTF)
07:17AM 26.6922 -80.2237 307° West 271 312 6,000 3,677 Climbing FlightAware ADS-B (RJTF)
07:18AM 26.7109 -80.2523 311° West 271 312 7,100 3,871 Climbing FlightAware ADS-B (RJTF)
07:18AM 26.7235 -80.2677 318° Northwest 278 320 8,000 3,955 Climbing FlightAware ADS-B (RJTF)
07:18AM 26.7507 -80.2882 326° Northwest 282 325 10,000 2,838 Climbing FlightAware ADS-B (RJTF)
07:19AM 26.8055 -80.3227 333° Northwest 336 387 11,500 1,840 Climbing FlightAware ADS-B (RJTF)
07:20AM 26.8560 -80.3517 333° Northwest 373 429 12,300 2,350 Climbing FlightAware ADS-B (RJTF)
07:21AM 27.0031 -80.4360 333° Northwest 410 472 16,200 2,586 Climbing FlightAware ADS-B (RJTF)
07:23AM 27.1375 -80.5381 323° Northwest 418 481 19,800 2,452 Climbing FlightAware ADS-B
07:23AM 27.1816 -80.5748 324° Northwest 426 490 20,900 1,029 Climbing FlightAware ADS-B
07:24AM 27.2495 -80.6308 323° Northwest 443 510 21,000 1,111 Climbing FlightAware ADS-B
07:24AM 27.3220 -80.6865 329° Northwest 450 518 22,400 1,973 Climbing FlightAware ADS-B
07:25AM 27.3758 -80.7184 335° Northwest 462 532 23,400 1,574 Climbing FlightAware ADS-B
07:26AM 27.4377 -80.7509 335° Northwest 470 541 24,000 600 Climbing FlightAware ADS-B
07:26AM 27.4941 -80.7800 335° Northwest 475 547 24,000  Level FlightAware ADS-B
07:27AM 27.5590 -80.8137 335° Northwest 479 551 24,000 1,000 Level FlightAware ADS-B
07:27AM 27.6173 -80.8443 335° Northwest 476 548 25,000 2,262 Climbing FlightAware ADS-B
07:28AM 27.6792 -80.8771 335° Northwest 473 544 26,300 1,967 Climbing FlightAware ADS-B
07:28AM 27.7405 -80.9098 335° Northwest 481 554 27,000 689 Climbing FlightAware ADS-B
07:29AM 27.8040 -80.9435 335° Northwest 484 557 27,000  Level FlightAware ADS-B
07:29AM 27.8645 -80.9759 335° Northwest 489 563 27,000 800 Level FlightAware ADS-B
07:30AM 27.9256 -81.0084 335° Northwest 488 562 27,800 1,500 Climbing FlightAware ADS-B
07:30AM 27.9874 -81.0414 335° Northwest 494 568 28,500 1,574 Climbing FlightAware ADS-B
07:31AM 28.0499 -81.0750 335° Northwest 493 567 29,400 1,770 Climbing FlightAware ADS-B
07:31AM 28.1088 -81.1064 335° Northwest 494 568 30,300 2,100 Climbing FlightAware ADS-B
07:32AM 28.1742 -81.1414 335° Northwest 487 560 31,500 2,361 Climbing FlightAware ADS-B
07:32AM 28.2384 -81.1758 335° Northwest 477 549 32,700 2,066 Climbing FlightAware ADS-B
07:33AM 28.2992 -81.2085 335° Northwest 472 543 33,600 1,452 Climbing FlightAware ADS-B
07:33AM 28.3618 -81.2381 340° North 483 556 34,200 1,125 Climbing FlightAware ADS-B
07:34AM 28.4278 -81.2643 342° North 492 566 34,800 889 Climbing FlightAware ADS-B
07:34AM 28.4784 -81.2826 342° North 497 572 35,000 231 Climbing FlightAware ADS-B (KSFB)
07:35AM 28.5460 -81.3065 343° North 499 574 35,000  Level FlightAware ADS-B
07:35AM 28.6091 -81.3285 343° North 500 575 35,000  Level FlightAware ADS-B
07:36AM 28.6802 -81.3533 343° North 500 575 35,000  Level FlightAware ADS-B (KSFB)
07:36AM 28.7403 -81.3741 343° North 498 573 35,000  Level FlightAware ADS-B (KSFB)
07:37AM 28.8369 -81.4082 343° North 502 578 35,000  Level FlightAware ADS-B
07:37AM 28.8704 -81.4199 343° North 504 580 35,000  Level FlightAware ADS-B (KSFB)
07:38AM 28.9901 -81.4621 343° North 504 580 35,000  Level FlightAware ADS-B (KSFB)
07:39AM 29.0880 -81.4968 343° North 506 582 35,000  Level FlightAware ADS-B
07:39AM 29.1533 -81.5199 343° North 505 581 35,000  Level FlightAware ADS-B
07:40AM 29.2220 -81.5443 343° North 502 578 35,000  Level FlightAware ADS-B
07:40AM 29.2901 -81.5685 343° North 500 575 35,000  Level FlightAware ADS-B
07:42AM 29.5829 -81.6732 343° North 504 580 35,000  Level FlightAware ADS-B
07:44AM 29.7433 -81.7253 343° North 499 574 35,000  Level Jacksonville Center
07:45AM 29.8794 -81.7739 343° North 499 574 35,000  Level Jacksonville Center
07:46AM 30.0156 -81.8228 343° North 499 574 35,000  Level Jacksonville Center
07:47AM 30.1600 -81.8692 344° North 505 581 35,000  Level Jacksonville Center
07:48AM 30.2942 -81.9206 342° North 505 581 35,000  Level Jacksonville Center
07:49AM 30.4261 -81.9722 341° North 505 581 35,000 -200 Level Jacksonville Center
07:50AM 30.5600 -82.0289 340° North 502 578 34,600 -1,000 Descending Jacksonville Center
07:51AM 30.6961 -82.0833 341° North 502 578 33,000 -800 Descending Jacksonville Center
07:52AM 30.8386 -82.1400 341° North 516 594 33,000  Level Jacksonville Center
07:53AM 30.9786 -82.1947 341° North 529 609 33,000  Level Jacksonville Center
07:54AM 31.1147 -82.2544 339° North 524 603 33,000  Level Jacksonville Center
07:55AM 31.2528 -82.3044 343° North 524 603 33,000  Level Jacksonville Center
07:56AM 31.3742 -82.3500 342° North 518 596 33,000  Level Jacksonville Center
07:57AM 31.5122 -82.4028 342° North 518 596 33,000  Level Jacksonville Center
07:58AM 31.7369 -82.4956 341° North 532 612 33,000  Level Atlanta Center
07:59AM 31.8711 -82.5494 341° North 520 598 33,000  Level Atlanta Center
08:00AM 31.9950 -82.6014 340° North 520 598 33,000  Level Atlanta Center
08:01AM 32.1231 -82.6728 335° Northwest 515 593 33,000  Level Atlanta Center
08:02AM 32.2286 -82.7842 318° Northwest 508 585 33,000  Level Atlanta Center
08:03AM 32.3319 -82.8958 318° Northwest 503 579 33,000 -200 Level Atlanta Center
08:04AM 32.4353 -83.0125 316° Northwest 503 579 32,600 -700 Descending Atlanta Center
08:05AM 32.5425 -83.1197 320° Northwest 503 579 31,600 -1,000 Descending Atlanta Center
08:06AM 32.6497 -83.2297 319° Northwest 503 579 30,600 -1,800 Descending Atlanta Center
08:07AM 32.7506 -83.3325 319° Northwest 497 572 28,000 1,200 Descending Atlanta Center
08:08AM 32.8492 -83.4331 319° Northwest 479 551 33,000 2,500 Climbing Atlanta Center
08:09AM 32.9417 -83.5314 318° Northwest 462 532 33,000 -8,350 Level Atlanta Center
08:10AM 33.0336 -83.6225 320° Northwest 448 516 16,300 -9,150 Descending Atlanta Center
08:11AM 33.1239 -83.7164 319° Northwest 414 476 14,700 -1,178 Descending Atlanta Center
08:12AM 33.1833 -83.7667 325° Northwest 351 404 14,200 -416 Descending Atlanta TRACON
08:13AM 33.2333 -83.8333 312° West 313 360 14,000 -263 Descending Atlanta TRACON
08:14AM 33.3000 -83.9167 314° West 312 359 13,700 -842 Descending Atlanta TRACON
08:15AM 33.3500 -84.0000 306° West 308 354 12,400 -895 Descending Atlanta TRACON
08:16AM 33.4000 -84.0833 306° West 307 353 12,000 -200 Descending Atlanta TRACON
08:17AM 33.4500 -84.1500 312° West 309 356 12,000  Level Atlanta TRACON
08:18AM 33.5000 -84.2167 312° West 305 351 12,000 -421 Level Atlanta TRACON
08:19AM 33.5333 -84.3000 296° West 281 323 11,200 -1,632 Descending Atlanta TRACON
08:20AM 33.5333 -84.3833 270° West 290 334 8,900 -2,421 Descending Atlanta TRACON
08:21AM 33.5333 -84.4833 270° West 293 337 6,600 -1,950 Descending Atlanta TRACON
08:22AM 33.5333 -84.5833 270° West 287 330 5,000 -947 Descending Atlanta TRACON
08:22AM 33.5333 -84.6667 270° West 278 320 4,800 -526 Descending Atlanta TRACON
08:23AM 33.5333 -84.7500 270° West 244 281 4,000 -421 Descending Atlanta TRACON
08:24AM 33.5833 -84.7667 344° North 175 201 4,000 -316 Level Atlanta TRACON
08:25AM 33.6167 -84.7333 40° Northeast 158 182 3,400 -500 Descending Atlanta TRACON
08:26AM 33.6167 -84.6833 90° East 166 191 3,000 -200 Descending Atlanta TRACON
08:27AM 33.6167 -84.6167 90° East 167 192 3,000 -50 Level Atlanta TRACON
08:28AM 33.6167 -84.5667 90° East 173 199 2,900 -450 Descending Atlanta TRACON
08:29AM 33.6167 -84.5167 90° East 143 165 2,100 -750 Descending Atlanta TRACON
08:30AM 33.6167 -84.4667 90° East 135 155 1,400 -700 Descending Atlanta TRACON